Time;durP1;ratioP1;P1;durP2;ratioP2;P2;SDS_P1;SDS_P2;PMS_P1;PMS_P2;Temp;Humidity;BMP_temperature;BMP_pressure;BME280_temperature;BME280_humidity;BME280_pressure;Samples;Min_cycle;Max_cycle;Signal;HPM_P1;HPM_P2
2023/05/04 00:00:51;;;;;;;18.17;7.43;;;;;;;;;;5034450;28;20412;-43
2023/05/04 00:03:17;;;;;;;16.03;6.80;;;;;;;;;;5034666;28;20439;-42
2023/05/04 00:05:43;;;;;;;10.60;8.40;;;;;;;;;;5034940;28;20522;-42
2023/05/04 00:08:09;;;;;;;12.20;7.57;;;;;;;;;;5034902;28;20416;-42
2023/05/04 00:10:35;;;;;;;9.50;7.43;;;;;;;;;;5034781;28;20410;-43
2023/05/04 00:13:01;;;;;;;8.67;7.77;;;;;;;;;;5033879;28;20527;-43
2023/05/04 00:15:29;;;;;;;9.20;7.60;;;;;;;;;;5035609;28;20452;-42
2023/05/04 00:17:55;;;;;;;16.13;7.83;;;;;;;;;;5035989;28;20957;-44
2023/05/04 00:20:21;;;;;;;9.03;6.47;;;;;;;;;;5034469;28;20824;-44
2023/05/04 00:22:47;;;;;;;16.13;7.50;;;;;;;;;;5034271;28;20460;-42
2023/05/04 00:25:13;;;;;;;17.30;7.67;;;;;;;;;;5034462;28;20448;-42
2023/05/04 00:27:39;;;;;;;8.10;6.73;;;;;;;;;;5034003;28;20442;-44
2023/05/04 00:30:06;;;;;;;11.03;7.47;;;;;;;;;;5034315;28;20404;-42
2023/05/04 00:32:32;;;;;;;12.73;8.57;;;;;;;;;;5034056;28;20492;-43
2023/05/04 00:34:59;;;;;;;13.70;8.73;;;;;;;;;;5034198;28;20663;-42
2023/05/04 00:37:25;;;;;;;11.27;7.00;;;;;;;;;;5034617;28;20926;-43
2023/05/04 00:39:51;;;;;;;11.07;7.57;;;;;;;;;;5034210;28;20418;-43
2023/05/04 00:42:17;;;;;;;11.30;7.60;;;;;;;;;;5033785;28;20423;-43
2023/05/04 00:44:43;;;;;;;13.47;7.23;;;;;;;;;;5040216;28;20451;-43
2023/05/04 00:47:09;;;;;;;11.53;8.00;;;;;;;;;;5030963;28;20419;-43
2023/05/04 00:49:35;;;;;;;9.10;7.00;;;;;;;;;;5034013;28;20427;-45
2023/05/04 00:52:02;;;;;;;11.80;8.23;;;;;;;;;;5033547;28;20409;-42
2023/05/04 00:54:28;;;;;;;11.50;7.77;;;;;;;;;;5033854;28;20468;-43
2023/05/04 00:56:55;;;;;;;11.80;7.87;;;;;;;;;;5033563;28;20937;-43
2023/05/04 00:59:21;;;;;;;10.53;7.60;;;;;;;;;;5033875;28;20417;-43
2023/05/04 01:01:47;;;;;;;12.53;8.60;;;;;;;;;;5033365;28;20483;-43
2023/05/04 01:04:13;;;;;;;8.13;6.97;;;;;;;;;;5033258;28;20540;-43
2023/05/04 01:06:42;;;;;;;9.90;6.87;;;;;;;;;;5033507;28;20427;-42
2023/05/04 01:09:09;;;;;;;9.87;7.53;;;;;;;;;;5033730;28;20400;-42
2023/05/04 01:11:55;;;;;;;9.00;6.83;;;;;;;;;;5033857;28;20968;-43
2023/05/04 01:14:22;;;;;;;15.23;12.33;;;;;;;;;;5029454;28;20462;-43
2023/05/04 01:16:49;;;;;;;12.20;8.70;;;;;;;;;;5053661;28;20910;-44
2023/05/04 01:19:15;;;;;;;9.00;7.43;;;;;;;;;;5053709;28;20414;-43
2023/05/04 01:21:41;;;;;;;12.30;8.70;;;;;;;;;;5053633;28;20408;-43
2023/05/04 01:24:07;;;;;;;11.53;8.03;;;;;;;;;;5051952;28;20516;-43
2023/05/04 01:26:37;;;;;;;10.10;7.57;;;;;;;;;;5053510;28;20416;-43
2023/05/04 01:29:03;;;;;;;12.17;8.37;;;;;;;;;;5053368;28;20895;-43
2023/05/04 01:31:29;;;;;;;11.40;7.87;;;;;;;;;;5049333;28;20443;-44
2023/05/04 01:33:55;;;;;;;14.70;8.60;;;;;;;;;;5033053;28;20493;-44
2023/05/04 01:36:22;;;;;;;14.67;9.07;;;;;;;;;;5033398;28;20400;-44
2023/05/04 01:38:48;;;;;;;11.10;9.07;;;;;;;;;;5033254;28;20407;-43
2023/05/04 01:41:15;;;;;;;14.30;9.20;;;;;;;;;;5033262;28;20400;-43
2023/05/04 01:43:41;;;;;;;13.10;9.20;;;;;;;;;;5033377;28;20452;-42
2023/05/04 01:46:07;;;;;;;17.73;8.97;;;;;;;;;;5033248;28;20924;-43
2023/05/04 01:48:33;;;;;;;12.73;9.17;;;;;;;;;;5033129;28;20418;-44
2023/05/04 01:50:58;;;;;;;17.90;8.50;;;;;;;;;;5038228;28;20988;-43
2023/05/04 01:53:25;;;;;;;14.03;8.90;;;;;;;;;;5052656;28;20856;-43
2023/05/04 01:55:51;;;;;;;10.03;8.23;;;;;;;;;;5052903;28;20398;-44
2023/05/04 01:58:18;;;;;;;14.30;7.93;;;;;;;;;;5052824;28;20468;-42
2023/05/04 02:00:44;;;;;;;10.63;7.50;;;;;;;;;;5044192;28;20922;-43
2023/05/04 02:03:10;;;;;;;16.53;9.83;;;;;;;;;;5029182;28;20423;-44
2023/05/04 02:05:36;;;;;;;12.50;8.50;;;;;;;;;;5027469;28;20460;-42
2023/05/04 02:08:02;;;;;;;16.77;9.47;;;;;;;;;;5031495;28;20447;-42
2023/05/04 02:10:28;;;;;;;12.33;8.77;;;;;;;;;;5029840;28;20422;-42
2023/05/04 02:12:54;;;;;;;15.03;9.47;;;;;;;;;;5031958;28;20776;-43
2023/05/04 02:15:20;;;;;;;16.90;10.80;;;;;;;;;;5030792;28;20412;-44
2023/05/04 02:17:46;;;;;;;10.37;7.90;;;;;;;;;;5037240;28;20486;-42
2023/05/04 02:20:12;;;;;;;12.70;8.20;;;;;;;;;;5032482;28;20411;-42
2023/05/04 02:22:38;;;;;;;15.93;11.20;;;;;;;;;;5032025;28;20494;-43
2023/05/04 02:25:05;;;;;;;15.17;9.00;;;;;;;;;;5032140;28;20495;-44
2023/05/04 02:27:31;;;;;;;13.30;9.27;;;;;;;;;;5032134;28;20412;-42
2023/05/04 02:29:57;;;;;;;20.20;9.53;;;;;;;;;;5032292;28;20463;-44
2023/05/04 02:32:23;;;;;;;15.80;10.40;;;;;;;;;;5032013;28;20411;-43
2023/05/04 02:34:49;;;;;;;16.97;9.70;;;;;;;;;;5031044;28;20466;-43
2023/05/04 02:37:15;;;;;;;16.60;8.57;;;;;;;;;;5032029;28;20775;-42
2023/05/04 02:39:41;;;;;;;13.17;9.90;;;;;;;;;;5031903;28;20415;-43
2023/05/04 02:42:07;;;;;;;13.20;9.40;;;;;;;;;;5031904;28;20498;-44
2023/05/04 02:44:33;;;;;;;16.23;9.57;;;;;;;;;;5031828;28;20426;-42
2023/05/04 02:46:59;;;;;;;12.10;8.93;;;;;;;;;;5032810;28;20439;-42
2023/05/04 02:49:25;;;;;;;11.00;8.50;;;;;;;;;;5036037;28;20803;-43
2023/05/04 02:51:51;;;;;;;14.67;10.03;;;;;;;;;;5029272;28;20419;-42
2023/05/04 02:54:17;;;;;;;18.27;9.87;;;;;;;;;;5031428;28;20458;-43
2023/05/04 02:56:43;;;;;;;11.33;9.07;;;;;;;;;;5026795;28;20417;-43
2023/05/04 02:59:09;;;;;;;12.70;9.33;;;;;;;;;;5031250;28;20446;-44
2023/05/04 03:01:35;;;;;;;16.13;8.20;;;;;;;;;;5031809;28;20404;-42
2023/05/04 03:04:01;;;;;;;16.63;10.57;;;;;;;;;;5030548;28;20449;-43
2023/05/04 03:06:27;;;;;;;17.80;8.60;;;;;;;;;;5031602;28;20454;-42
2023/05/04 03:08:53;;;;;;;11.93;8.73;;;;;;;;;;5031370;28;20453;-43
2023/05/04 03:11:19;;;;;;;11.40;8.93;;;;;;;;;;5031577;28;20421;-43
2023/05/04 03:13:45;;;;;;;16.90;9.17;;;;;;;;;;5031106;28;20524;-42
2023/05/04 03:16:11;;;;;;;14.87;10.90;;;;;;;;;;5031877;28;20485;-43
2023/05/04 03:18:37;;;;;;;14.70;9.30;;;;;;;;;;5035712;28;20399;-43
2023/05/04 03:21:03;;;;;;;15.17;9.47;;;;;;;;;;5030463;28;20420;-44
2023/05/04 03:23:29;;;;;;;11.73;8.70;;;;;;;;;;5031120;28;20426;-43
2023/05/04 03:25:55;;;;;;;15.13;9.90;;;;;;;;;;5031419;28;20648;-42
2023/05/04 03:28:21;;;;;;;14.70;8.98;;;;;;;;;;5031470;28;20544;-42
2023/05/04 03:30:47;;;;;;;13.90;8.53;;;;;;;;;;5030909;28;20180;-42
2023/05/04 03:33:13;;;;;;;14.63;9.50;;;;;;;;;;5030956;28;20480;-43
2023/05/04 03:35:39;;;;;;;12.23;8.60;;;;;;;;;;5031435;28;20777;-43
2023/05/04 03:38:06;;;;;;;13.43;9.10;;;;;;;;;;5031198;28;20402;-42
2023/05/04 03:40:32;;;;;;;10.73;8.70;;;;;;;;;;5031588;28;20176;-42
2023/05/04 03:42:58;;;;;;;20.03;10.40;;;;;;;;;;5030866;28;20780;-43
2023/05/04 03:45:27;;;;;;;19.27;8.70;;;;;;;;;;5030849;28;20421;-43
2023/05/04 03:47:53;;;;;;;12.82;8.38;;;;;;;;;;5031722;28;20944;-43
2023/05/04 03:50:20;;;;;;;11.90;7.77;;;;;;;;;;5034958;28;20178;-42
2023/05/04 03:52:46;;;;;;;11.18;8.75;;;;;;;;;;5030732;28;20427;-43
2023/05/04 03:55:12;;;;;;;13.13;9.07;;;;;;;;;;5028885;28;20227;-43
2023/05/04 03:57:38;;;;;;;13.27;8.13;;;;;;;;;;5025759;28;20430;-42
2023/05/04 04:00:04;;;;;;;11.07;8.27;;;;;;;;;;5030046;28;20895;-43
2023/05/04 04:02:30;;;;;;;17.23;10.40;;;;;;;;;;5029305;28;20410;-43
2023/05/04 04:04:56;;;;;;;9.97;8.23;;;;;;;;;;5030521;28;20414;-42
2023/05/04 04:07:22;;;;;;;12.38;8.45;;;;;;;;;;5030396;28;20886;-42
2023/05/04 04:09:48;;;;;;;13.83;9.53;;;;;;;;;;5030903;28;20173;-42
2023/05/04 04:12:19;;;;;;;14.17;9.37;;;;;;;;;;5030543;28;20411;-45
2023/05/04 04:14:46;;;;;;;21.17;9.53;;;;;;;;;;5030554;28;21055;-43
2023/05/04 04:17:11;;;;;;;13.40;7.90;;;;;;;;;;5043672;28;20455;-42
2023/05/04 04:19:37;;;;;;;9.80;7.67;;;;;;;;;;5049312;28;20928;-43
2023/05/04 04:22:03;;;;;;;12.67;9.63;;;;;;;;;;5050453;28;20931;-42
2023/05/04 04:24:30;;;;;;;19.80;12.87;;;;;;;;;;5050259;28;20461;-42
2023/05/04 04:26:56;;;;;;;12.57;8.45;;;;;;;;;;5052514;28;20768;-43
2023/05/04 04:29:22;;;;;;;16.60;10.80;;;;;;;;;;5054703;28;20250;-42
2023/05/04 04:31:48;;;;;;;21.10;9.70;;;;;;;;;;5054638;28;20399;-42
2023/05/04 04:34:14;;;;;;;10.13;8.83;;;;;;;;;;5044975;28;20464;-43
2023/05/04 04:36:40;;;;;;;12.93;8.57;;;;;;;;;;5034840;28;20442;-43
2023/05/04 04:39:06;;;;;;;12.07;9.00;;;;;;;;;;5034263;28;20418;-42
2023/05/04 04:41:32;;;;;;;16.90;8.30;;;;;;;;;;5034446;28;20490;-42
2023/05/04 04:43:59;;;;;;;11.20;7.30;;;;;;;;;;5034121;28;20502;-43
2023/05/04 04:46:25;;;;;;;12.97;8.97;;;;;;;;;;5036123;28;20442;-43
2023/05/04 04:48:52;;;;;;;11.60;8.83;;;;;;;;;;5052978;28;20425;-44
2023/05/04 04:51:18;;;;;;;11.23;9.10;;;;;;;;;;5054153;28;20443;-43
2023/05/04 04:53:44;;;;;;;16.60;9.70;;;;;;;;;;5053841;28;20465;-43
2023/05/04 04:56:10;;;;;;;15.57;9.07;;;;;;;;;;5054179;28;20403;-43
2023/05/04 04:58:36;;;;;;;18.17;11.00;;;;;;;;;;5051505;28;20967;-43
2023/05/04 05:01:03;;;;;;;13.60;8.27;;;;;;;;;;5033188;28;20418;-43
2023/05/04 05:03:29;;;;;;;17.60;9.50;;;;;;;;;;5033356;28;20468;-42
2023/05/04 05:05:55;;;;;;;13.63;8.20;;;;;;;;;;5033900;28;20433;-42
2023/05/04 05:08:21;;;;;;;15.93;9.93;;;;;;;;;;5033862;28;20405;-42
2023/05/04 05:10:47;;;;;;;15.30;10.03;;;;;;;;;;5033844;28;20400;-43
2023/05/04 05:13:13;;;;;;;11.30;8.47;;;;;;;;;;5033927;28;20455;-44
2023/05/04 05:15:39;;;;;;;14.97;11.30;;;;;;;;;;5036152;28;20476;-44
2023/05/04 05:18:05;;;;;;;16.40;9.60;;;;;;;;;;5053574;28;20398;-44
2023/05/04 05:20:32;;;;;;;11.23;8.93;;;;;;;;;;5054196;28;20404;-44
2023/05/04 05:22:58;;;;;;;13.80;9.67;;;;;;;;;;5052416;28;20467;-43
2023/05/04 05:25:24;;;;;;;17.07;10.13;;;;;;;;;;5033583;28;20428;-43
2023/05/04 05:27:50;;;;;;;13.20;8.90;;;;;;;;;;5033236;28;20891;-45
2023/05/04 05:30:16;;;;;;;10.33;8.00;;;;;;;;;;5033460;28;20955;-43
2023/05/04 05:32:42;;;;;;;14.30;9.90;;;;;;;;;;5033013;28;21181;-44
2023/05/04 05:35:08;;;;;;;11.83;8.57;;;;;;;;;;5033302;28;20460;-43
2023/05/04 05:37:34;;;;;;;16.47;9.10;;;;;;;;;;5030820;28;20794;-43
2023/05/04 05:40:00;;;;;;;12.63;9.37;;;;;;;;;;5030849;28;20404;-43
2023/05/04 05:42:29;;;;;;;15.97;9.97;;;;;;;;;;5031520;28;20910;-43
2023/05/04 05:44:55;;;;;;;10.23;8.20;;;;;;;;;;5032799;28;20424;-43
2023/05/04 05:47:21;;;;;;;17.10;10.50;;;;;;;;;;5032722;28;20840;-44
2023/05/04 05:49:47;;;;;;;13.67;9.37;;;;;;;;;;5032953;28;20423;-44
2023/05/04 05:52:13;;;;;;;13.47;8.97;;;;;;;;;;5032821;28;20477;-44
2023/05/04 05:54:39;;;;;;;14.07;9.70;;;;;;;;;;5033034;28;20465;-44
2023/05/04 05:57:05;;;;;;;14.33;9.30;;;;;;;;;;5034537;28;20418;-43
2023/05/04 05:59:31;;;;;;;11.47;8.73;;;;;;;;;;5032827;28;20402;-44
2023/05/04 06:01:57;;;;;;;15.77;9.47;;;;;;;;;;5032326;28;20429;-45
2023/05/04 06:04:23;;;;;;;14.47;9.67;;;;;;;;;;5032257;28;20453;-43
2023/05/04 06:06:49;;;;;;;14.23;9.40;;;;;;;;;;5032398;28;20430;-44
2023/05/04 06:09:15;;;;;;;14.77;8.90;;;;;;;;;;5032574;28;20501;-44
2023/05/04 06:11:41;;;;;;;9.30;8.03;;;;;;;;;;5032482;28;20410;-43
2023/05/04 06:14:07;;;;;;;10.77;8.27;;;;;;;;;;5031787;28;20478;-44
2023/05/04 06:16:33;;;;;;;11.47;8.20;;;;;;;;;;5032395;28;20461;-44
2023/05/04 06:19:00;;;;;;;10.43;7.73;;;;;;;;;;5032292;28;20407;-43
2023/05/04 06:21:26;;;;;;;19.23;9.30;;;;;;;;;;5032274;28;20420;-43
2023/05/04 06:23:52;;;;;;;24.37;13.17;;;;;;;;;;5031308;28;20531;-46
2023/05/04 06:26:19;;;;;;;8.33;6.80;;;;;;;;;;5036836;28;20811;-43
2023/05/04 06:28:44;;;;;;;16.53;7.50;;;;;;;;;;5038303;28;20432;-43
2023/05/04 06:31:11;;;;;;;15.63;8.80;;;;;;;;;;5030248;28;20529;-44
2023/05/04 06:33:37;;;;;;;10.37;9.00;;;;;;;;;;5029961;28;20550;-44
2023/05/04 06:36:03;;;;;;;9.77;7.40;;;;;;;;;;5030746;28;20400;-43
2023/05/04 06:38:29;;;;;;;10.63;8.00;;;;;;;;;;5031848;28;20820;-43
2023/05/04 06:40:55;;;;;;;12.20;7.97;;;;;;;;;;5031857;28;20404;-44
2023/05/04 06:43:21;;;;;;;10.70;8.00;;;;;;;;;;5031620;28;20871;-43
2023/05/04 06:45:47;;;;;;;16.23;8.10;;;;;;;;;;5031799;28;20794;-44
2023/05/04 06:48:13;;;;;;;9.67;7.67;;;;;;;;;;5031657;28;20392;-44
2023/05/04 06:50:39;;;;;;;17.63;7.47;;;;;;;;;;5031472;28;20459;-46
2023/05/04 06:53:09;;;;;;;11.70;7.50;;;;;;;;;;5031371;28;20402;-44
2023/05/04 06:55:36;;;;;;;8.90;7.57;;;;;;;;;;5031528;28;20420;-43
2023/05/04 06:58:02;;;;;;;16.13;8.10;;;;;;;;;;5033152;28;20424;-45
2023/05/04 07:00:28;;;;;;;10.80;7.93;;;;;;;;;;5031532;28;20417;-44
2023/05/04 07:02:54;;;;;;;16.73;8.73;;;;;;;;;;5031308;28;20513;-45
2023/05/04 07:05:21;;;;;;;9.53;7.77;;;;;;;;;;5031508;28;20564;-46
2023/05/04 07:07:47;;;;;;;11.83;7.57;;;;;;;;;;5031700;28;20385;-44
2023/05/04 07:10:13;;;;;;;13.07;8.03;;;;;;;;;;5031522;28;20414;-44
2023/05/04 07:12:40;;;;;;;11.83;8.33;;;;;;;;;;5031132;28;20392;-43
2023/05/04 07:15:07;;;;;;;9.50;6.97;;;;;;;;;;5030496;28;20965;-44
2023/05/04 07:17:33;;;;;;;9.30;7.60;;;;;;;;;;5031364;28;20425;-43
2023/05/04 07:20:03;;;;;;;9.17;7.10;;;;;;;;;;5031572;28;20491;-43
2023/05/04 07:22:30;;;;;;;12.83;9.00;;;;;;;;;;5031559;28;20899;-43
2023/05/04 07:24:57;;;;;;;9.43;7.10;;;;;;;;;;5031386;28;20903;-44
2023/05/04 07:27:23;;;;;;;12.63;7.73;;;;;;;;;;5033580;28;20424;-45
2023/05/04 07:29:52;;;;;;;9.30;6.90;;;;;;;;;;5030096;28;20393;-46
2023/05/04 07:32:18;;;;;;;9.40;8.37;;;;;;;;;;5030955;28;20781;-44
2023/05/04 07:34:44;;;;;;;10.10;7.20;;;;;;;;;;5030877;28;20471;-44
2023/05/04 07:37:10;;;;;;;9.30;7.10;;;;;;;;;;5023915;28;20414;-44
2023/05/04 07:39:37;;;;;;;8.60;6.53;;;;;;;;;;5031177;28;20753;-43
2023/05/04 07:42:03;;;;;;;8.97;6.90;;;;;;;;;;5029571;28;20410;-44
2023/05/04 07:44:30;;;;;;;5.97;5.37;;;;;;;;;;5030780;28;20424;-44
2023/05/04 07:46:57;;;;;;;5.23;4.73;;;;;;;;;;5031048;28;20466;-44
2023/05/04 07:49:23;;;;;;;5.70;5.20;;;;;;;;;;5031491;28;20502;-44
2023/05/04 07:51:49;;;;;;;10.90;5.40;;;;;;;;;;5031379;28;20494;-45
2023/05/04 07:54:15;;;;;;;4.80;4.30;;;;;;;;;;5023539;28;20461;-44
2023/05/04 07:56:41;;;;;;;12.03;5.27;;;;;;;;;;5035874;28;20426;-44
2023/05/04 07:59:07;;;;;;;6.53;4.80;;;;;;;;;;5033522;28;20426;-44
2023/05/04 08:01:33;;;;;;;8.37;4.67;;;;;;;;;;5032401;28;20928;-46
2023/05/04 08:03:59;;;;;;;5.77;4.50;;;;;;;;;;5034699;28;20945;-44
2023/05/04 08:06:25;;;;;;;7.63;4.30;;;;;;;;;;5034878;28;20953;-44
2023/05/04 08:08:51;;;;;;;5.33;4.07;;;;;;;;;;5033223;28;20398;-45
2023/05/04 08:11:17;;;;;;;5.00;4.07;;;;;;;;;;5034655;28;20398;-45
2023/05/04 08:13:47;;;;;;;7.80;4.63;;;;;;;;;;5034446;28;20468;-44
2023/05/04 08:16:13;;;;;;;7.23;4.83;;;;;;;;;;5034899;28;20457;-44
2023/05/04 08:18:39;;;;;;;4.57;4.10;;;;;;;;;;5034625;28;20541;-45
2023/05/04 08:21:05;;;;;;;5.83;4.70;;;;;;;;;;5034639;28;20497;-46
2023/05/04 08:23:32;;;;;;;6.47;3.80;;;;;;;;;;5033014;28;20489;-47
2023/05/04 08:26:01;;;;;;;10.10;3.87;;;;;;;;;;5035879;28;20434;-45
2023/05/04 08:28:27;;;;;;;7.83;4.07;;;;;;;;;;5038794;28;20436;-44
2023/05/04 08:30:53;;;;;;;7.40;4.87;;;;;;;;;;5053772;28;20500;-44
2023/05/04 08:33:18;;;;;;;6.43;4.13;;;;;;;;;;5053882;28;20429;-44
2023/05/04 08:35:44;;;;;;;6.83;4.20;;;;;;;;;;5044331;28;20429;-45
2023/05/04 08:38:10;;;;;;;5.03;3.70;;;;;;;;;;5054287;28;20403;-46
2023/05/04 08:40:40;;;;;;;6.20;4.27;;;;;;;;;;5054628;28;20890;-44
2023/05/04 08:43:06;;;;;;;4.90;4.13;;;;;;;;;;5054237;28;20422;-44
2023/05/04 08:45:33;;;;;;;4.40;4.00;;;;;;;;;;5054666;28;20401;-44
2023/05/04 08:47:59;;;;;;;10.23;4.03;;;;;;;;;;5054358;28;20410;-44
2023/05/04 08:50:25;;;;;;;8.53;4.23;;;;;;;;;;5054302;28;20397;-44
2023/05/04 08:52:52;;;;;;;6.17;4.07;;;;;;;;;;5053978;28;20825;-44
2023/05/04 08:55:18;;;;;;;9.30;4.87;;;;;;;;;;5054247;28;20480;-45
2023/05/04 08:57:44;;;;;;;8.63;6.90;;;;;;;;;;5051733;28;20393;-45
2023/05/04 09:00:14;;;;;;;5.87;4.10;;;;;;;;;;5033835;28;20407;-44
2023/05/04 09:02:41;;;;;;;9.10;5.73;;;;;;;;;;5033780;28;20836;-47
2023/05/04 09:05:07;;;;;;;5.17;4.53;;;;;;;;;;5033205;28;20414;-49
2023/05/04 09:07:33;;;;;;;4.90;4.10;;;;;;;;;;5052663;28;20780;-48
2023/05/04 09:10:00;;;;;;;6.90;4.83;;;;;;;;;;5052613;28;20896;-45
2023/05/04 09:12:26;;;;;;;4.37;4.00;;;;;;;;;;5053426;28;20401;-45
2023/05/04 09:14:52;;;;;;;6.20;3.90;;;;;;;;;;5053633;28;20456;-44
2023/05/04 09:17:26;;;;;;;5.10;4.17;;;;;;;;;;5053737;28;20409;-45
2023/05/04 09:19:58;;;;;;;10.30;4.67;;;;;;;;;;5053589;28;20394;-46
2023/05/04 09:22:24;;;;;;;9.53;4.67;;;;;;;;;;5053415;28;20484;-45
2023/05/04 09:24:50;;;;;;;5.17;4.07;;;;;;;;;;5053807;28;20553;-44
2023/05/04 09:27:16;;;;;;;7.50;4.33;;;;;;;;;;5053760;28;20407;-45
2023/05/04 09:29:42;;;;;;;4.10;3.60;;;;;;;;;;5053413;28;20483;-45
2023/05/04 09:32:14;;;;;;;4.73;4.03;;;;;;;;;;5053440;28;20406;-45
2023/05/04 09:34:53;;;;;;;5.60;5.10;;;;;;;;;;5053172;28;20452;-44
2023/05/04 09:37:20;;;;;;;4.60;3.90;;;;;;;;;;5050977;28;20479;-45
2023/05/04 09:39:57;;;;;;;5.00;3.93;;;;;;;;;;5053323;28;20409;-44
2023/05/04 09:42:27;;;;;;;8.77;4.73;;;;;;;;;;5053486;28;20425;-47
2023/05/04 09:45:09;;;;;;;5.10;4.23;;;;;;;;;;5053014;28;20405;-48
2023/05/04 09:47:39;;;;;;;5.83;4.30;;;;;;;;;;5053048;28;20389;-47
2023/05/04 09:50:13;;;;;;;6.73;4.50;;;;;;;;;;5053237;28;20401;-48
2023/05/04 09:52:39;;;;;;;5.00;4.43;;;;;;;;;;5053246;28;20740;-47
2023/05/04 09:55:08;;;;;;;4.27;3.87;;;;;;;;;;5052810;28;20494;-47
2023/05/04 09:57:35;;;;;;;4.30;3.90;;;;;;;;;;5052867;28;20389;-46
2023/05/04 10:00:03;;;;;;;10.53;6.63;;;;;;;;;;5052204;28;20436;-47
2023/05/04 10:02:31;;;;;;;6.57;5.30;;;;;;;;;;5052638;28;20393;-47
2023/05/04 10:04:57;;;;;;;5.17;4.30;;;;;;;;;;5051117;28;20401;-48
2023/05/04 10:07:23;;;;;;;6.80;4.27;;;;;;;;;;5051691;28;20842;-49
2023/05/04 10:09:50;;;;;;;6.37;4.20;;;;;;;;;;5052715;28;20459;-47
2023/05/04 10:12:16;;;;;;;6.50;4.57;;;;;;;;;;5052626;28;20400;-49
2023/05/04 10:14:45;;;;;;;5.70;4.27;;;;;;;;;;5052459;28;20979;-49
2023/05/04 10:17:26;;;;;;;4.57;3.43;;;;;;;;;;5052613;28;20412;-49
2023/05/04 10:20:11;;;;;;;4.00;3.60;;;;;;;;;;5052511;28;20405;-47
2023/05/04 10:22:37;;;;;;;5.40;4.63;;;;;;;;;;5049020;28;20509;-48
2023/05/04 10:25:06;;;;;;;4.30;3.57;;;;;;;;;;5051874;28;20480;-48
2023/05/04 10:27:44;;;;;;;5.20;3.80;;;;;;;;;;5052330;28;20171;-48
2023/05/04 10:30:12;;;;;;;3.53;3.20;;;;;;;;;;5052453;28;20752;-49
2023/05/04 10:32:38;;;;;;;8.20;4.87;;;;;;;;;;5051885;28;20401;-47
2023/05/04 10:35:05;;;;;;;7.93;4.37;;;;;;;;;;5035729;28;20465;-48
2023/05/04 10:37:32;;;;;;;8.17;4.57;;;;;;;;;;5033163;28;20576;-46
2023/05/04 10:39:58;;;;;;;6.80;3.63;;;;;;;;;;5045360;28;20794;-47
2023/05/04 10:42:24;;;;;;;5.90;4.00;;;;;;;;;;5051876;28;20871;-46
2023/05/04 10:44:59;;;;;;;7.80;4.30;;;;;;;;;;5044142;28;20442;-47
2023/05/04 10:47:30;;;;;;;7.30;3.77;;;;;;;;;;5031366;28;20694;-47
2023/05/04 10:50:00;;;;;;;7.03;3.93;;;;;;;;;;5030754;28;20538;-46
2023/05/04 10:52:26;;;;;;;4.63;4.07;;;;;;;;;;5031195;28;20445;-48
2023/05/04 10:55:04;;;;;;;6.30;3.70;;;;;;;;;;5037020;28;20551;-47
2023/05/04 10:57:30;;;;;;;4.70;3.50;;;;;;;;;;5031607;28;20417;-46
2023/05/04 10:59:59;;;;;;;4.00;3.40;;;;;;;;;;5031911;28;20398;-46
2023/05/04 11:02:26;;;;;;;5.60;3.70;;;;;;;;;;5031901;28;20395;-45
2023/05/04 11:04:59;;;;;;;8.30;3.47;;;;;;;;;;5032056;28;20910;-45
2023/05/04 11:07:38;;;;;;;3.63;3.33;;;;;;;;;;5039678;28;20521;-45
2023/05/04 11:10:04;;;;;;;3.97;3.33;;;;;;;;;;5030103;28;20433;-44
2023/05/04 11:12:31;;;;;;;4.97;4.37;;;;;;;;;;5031479;28;20398;-46
2023/05/04 11:15:04;;;;;;;3.70;3.40;;;;;;;;;;5031743;28;21019;-46
2023/05/04 11:17:30;;;;;;;4.27;3.70;;;;;;;;;;5031829;28;20408;-45
2023/05/04 11:19:56;;;;;;;6.80;3.80;;;;;;;;;;5031710;28;20402;-46
2023/05/04 11:22:22;;;;;;;7.30;4.33;;;;;;;;;;5031684;28;20193;-45
2023/05/04 11:24:48;;;;;;;4.50;4.10;;;;;;;;;;5030969;28;20517;-45
2023/05/04 11:27:22;;;;;;;5.67;3.13;;;;;;;;;;5031434;28;20395;-45
2023/05/04 11:30:01;;;;;;;7.10;3.17;;;;;;;;;;5038458;28;20865;-46
2023/05/04 11:32:33;;;;;;;5.27;3.80;;;;;;;;;;5051372;28;20441;-47
2023/05/04 11:35:00;;;;;;;4.27;3.30;;;;;;;;;;5051964;28;20511;-44
2023/05/04 11:37:28;;;;;;;3.63;3.30;;;;;;;;;;5055663;28;20397;-45
2023/05/04 11:39:54;;;;;;;4.77;3.60;;;;;;;;;;5055577;28;20401;-45
2023/05/04 11:42:20;;;;;;;3.10;2.80;;;;;;;;;;5055451;28;20393;-45
2023/05/04 11:44:46;;;;;;;3.20;2.90;;;;;;;;;;5052579;28;20449;-45
2023/05/04 11:47:13;;;;;;;3.47;3.13;;;;;;;;;;5055797;28;20406;-47
2023/05/04 11:49:39;;;;;;;5.50;3.60;;;;;;;;;;5055459;28;20398;-47
2023/05/04 11:52:05;;;;;;;4.60;3.40;;;;;;;;;;5055210;28;20912;-47
2023/05/04 11:54:31;;;;;;;5.00;3.63;;;;;;;;;;5040195;28;20505;-48
2023/05/04 11:56:58;;;;;;;3.20;2.90;;;;;;;;;;5033119;28;20471;-48
2023/05/04 11:59:24;;;;;;;5.33;3.97;;;;;;;;;;5033449;28;20398;-48
2023/05/04 12:01:50;;;;;;;4.63;4.00;;;;;;;;;;5033018;28;20413;-47
2023/05/04 12:04:16;;;;;;;5.80;3.73;;;;;;;;;;5034299;28;20446;-47
2023/05/04 12:06:42;;;;;;;6.07;4.37;;;;;;;;;;5039655;28;20446;-48
2023/05/04 12:09:08;;;;;;;3.57;3.23;;;;;;;;;;5033883;28;20785;-48
2023/05/04 12:11:37;;;;;;;4.10;3.20;;;;;;;;;;5035016;28;20409;-47
2023/05/04 12:14:15;;;;;;;3.80;3.40;;;;;;;;;;5034611;28;20192;-47
2023/05/04 12:16:41;;;;;;;5.30;4.03;;;;;;;;;;5034918;28;20405;-48
2023/05/04 12:19:11;;;;;;;3.07;2.83;;;;;;;;;;5034983;28;20417;-47
2023/05/04 12:21:48;;;;;;;3.50;3.20;;;;;;;;;;5035043;28;20401;-47
2023/05/04 12:24:14;;;;;;;4.40;3.13;;;;;;;;;;5034674;28;21007;-49
2023/05/04 12:26:41;;;;;;;4.47;2.93;;;;;;;;;;5034766;28;20417;-48
2023/05/04 12:29:07;;;;;;;4.47;3.60;;;;;;;;;;5034815;28;20424;-47
2023/05/04 12:31:33;;;;;;;3.07;2.77;;;;;;;;;;5041034;28;20991;-46
2023/05/04 12:33:59;;;;;;;4.50;2.80;;;;;;;;;;5053271;28;20468;-48
2023/05/04 12:36:25;;;;;;;2.80;2.60;;;;;;;;;;5054697;28;20885;-47
2023/05/04 12:38:51;;;;;;;3.80;2.67;;;;;;;;;;5054522;28;20401;-48
2023/05/04 12:41:17;;;;;;;2.53;2.33;;;;;;;;;;5054374;28;20405;-47
2023/05/04 12:43:43;;;;;;;3.60;2.93;;;;;;;;;;5054143;28;20432;-47
2023/05/04 12:46:09;;;;;;;3.30;2.90;;;;;;;;;;5054302;28;20420;-46
2023/05/04 12:48:35;;;;;;;3.80;2.97;;;;;;;;;;5053674;28;20437;-46
2023/05/04 12:51:04;;;;;;;2.90;2.70;;;;;;;;;;5049064;28;20458;-47
2023/05/04 12:53:31;;;;;;;4.07;3.67;;;;;;;;;;5034793;28;20840;-47
2023/05/04 12:56:00;;;;;;;3.77;3.00;;;;;;;;;;5034256;28;20894;-48
2023/05/04 12:58:27;;;;;;;4.17;2.73;;;;;;;;;;5034191;28;20410;-48
2023/05/04 13:00:53;;;;;;;4.90;3.53;;;;;;;;;;5033741;28;20402;-47
2023/05/04 13:03:19;;;;;;;5.10;3.63;;;;;;;;;;5047504;28;21021;-47
2023/05/04 13:05:47;;;;;;;4.00;3.60;;;;;;;;;;5052218;28;20425;-47
2023/05/04 13:08:13;;;;;;;6.87;3.53;;;;;;;;;;5053322;28;20190;-46
2023/05/04 13:10:39;;;;;;;4.53;3.10;;;;;;;;;;5053108;28;20459;-46
2023/05/04 13:13:05;;;;;;;3.90;3.30;;;;;;;;;;5052125;28;20483;-47
2023/05/04 13:15:32;;;;;;;4.30;2.67;;;;;;;;;;5053079;28;20240;-47
2023/05/04 13:17:58;;;;;;;3.87;2.60;;;;;;;;;;5053765;28;20400;-48
2023/05/04 13:20:25;;;;;;;3.43;2.67;;;;;;;;;;5053784;28;20397;-47
2023/05/04 13:22:51;;;;;;;3.90;3.00;;;;;;;;;;5053481;28;20431;-48
2023/05/04 13:25:17;;;;;;;3.97;2.80;;;;;;;;;;5053746;28;20406;-46
2023/05/04 13:27:43;;;;;;;3.70;3.30;;;;;;;;;;5053559;28;20405;-47
2023/05/04 13:30:09;;;;;;;4.80;3.10;;;;;;;;;;5053686;28;20413;-47
2023/05/04 13:32:36;;;;;;;3.83;3.40;;;;;;;;;;5050255;28;20425;-48
2023/05/04 13:35:03;;;;;;;3.23;2.23;;;;;;;;;;5052485;28;20468;-47
2023/05/04 13:37:29;;;;;;;5.60;2.77;;;;;;;;;;5053501;28;20459;-46
2023/05/04 13:39:55;;;;;;;3.53;3.13;;;;;;;;;;5053250;28;20405;-48
2023/05/04 13:42:21;;;;;;;5.03;4.00;;;;;;;;;;5053228;28;20175;-46
2023/05/04 13:44:47;;;;;;;5.00;3.40;;;;;;;;;;5053245;28;21018;-47
2023/05/04 13:47:15;;;;;;;7.63;3.43;;;;;;;;;;5053271;28;20704;-47
2023/05/04 13:49:41;;;;;;;5.07;3.43;;;;;;;;;;5053387;28;20409;-47
2023/05/04 13:52:07;;;;;;;7.40;3.57;;;;;;;;;;5053150;28;20409;-47
2023/05/04 13:54:33;;;;;;;3.13;2.73;;;;;;;;;;5052826;28;20449;-47
2023/05/04 13:56:59;;;;;;;4.60;3.17;;;;;;;;;;5053045;28;20425;-47
2023/05/04 13:59:25;;;;;;;4.27;3.60;;;;;;;;;;5052050;28;20463;-47
2023/05/04 14:01:52;;;;;;;3.73;3.43;;;;;;;;;;5051499;28;20429;-46
2023/05/04 14:04:18;;;;;;;4.47;3.77;;;;;;;;;;5052743;28;20433;-47
2023/05/04 14:06:47;;;;;;;4.03;3.40;;;;;;;;;;5052823;28;20482;-46
2023/05/04 14:09:14;;;;;;;6.80;5.37;;;;;;;;;;5052847;28;20410;-48
2023/05/04 14:11:39;;;;;;;4.60;4.00;;;;;;;;;;5047384;28;20504;-48
2023/05/04 14:14:05;;;;;;;4.67;3.87;;;;;;;;;;5032469;28;21045;-48
2023/05/04 14:16:31;;;;;;;5.10;4.60;;;;;;;;;;5032886;28;20587;-48
2023/05/04 14:18:57;;;;;;;6.10;4.73;;;;;;;;;;5032624;28;20406;-48
2023/05/04 14:21:32;;;;;;;9.13;5.33;;;;;;;;;;5063759;27;20576;-47
2023/05/04 14:23:58;;;;;;;9.50;5.50;;;;;;;;;;5063828;28;20841;-46
2023/05/04 14:26:24;;;;;;;6.07;4.90;;;;;;;;;;5064923;28;20430;-46
2023/05/04 14:28:50;;;;;;;4.00;3.53;;;;;;;;;;5064687;28;20768;-47
2023/05/04 14:31:16;;;;;;;6.70;5.93;;;;;;;;;;5063738;28;20634;-48
2023/05/04 14:33:42;;;;;;;10.03;4.70;;;;;;;;;;5064345;27;20566;-48